createdAt,value
2022-09-23T00:00:25.001Z,5.80
2022-09-23T00:03:11.201Z,5.32
2022-09-23T00:06:05.195Z,5.00
2022-09-23T00:08:51.579Z,5.13
2022-09-23T00:11:37.584Z,5.50
2022-09-23T00:14:22.854Z,5.35
2022-09-23T00:17:08.245Z,5.60
2022-09-23T00:19:55.447Z,5.07
2022-09-23T00:22:41.390Z,5.60
2022-09-23T00:25:29.751Z,5.25
2022-09-23T00:28:15.699Z,5.55
2022-09-23T00:31:17.399Z,4.80
2022-09-23T00:34:03.145Z,5.03
2022-09-23T00:36:48.487Z,5.75
2022-09-23T00:39:33.715Z,5.72
2022-09-23T00:42:21.530Z,5.68
2022-09-23T00:45:11.303Z,6.05
2022-09-23T00:48:02.700Z,5.97
2022-09-23T00:50:54.567Z,6.60
2022-09-23T00:53:41.222Z,6.45
2022-09-23T00:56:26.861Z,5.88
2022-09-23T00:59:13.900Z,6.32
2022-09-23T01:02:02.039Z,6.40
2022-09-23T01:04:52.191Z,6.25
2022-09-23T01:07:37.565Z,6.32
2022-09-23T01:10:24.311Z,6.15
2022-09-23T01:13:17.299Z,5.97
2022-09-23T01:16:12.129Z,6.40
2022-09-23T01:19:11.488Z,6.57
2022-09-23T01:22:27.876Z,6.95
2022-09-23T01:26:00.058Z,6.55
2022-09-23T01:29:08.591Z,6.68
2022-09-23T01:32:05.491Z,7.00
2022-09-23T01:35:08.022Z,6.82
2022-09-23T01:37:59.771Z,6.50
2022-09-23T01:40:55.809Z,7.30
2022-09-23T01:44:02.296Z,6.65
2022-09-23T01:47:15.995Z,6.80
2022-09-23T01:50:25.887Z,6.53
2022-09-23T01:53:49.690Z,7.32
2022-09-23T01:57:16.776Z,6.85
2022-09-23T02:00:15.793Z,8.02
2022-09-23T02:03:07.528Z,6.70
2022-09-23T02:06:13.037Z,6.97
2022-09-23T02:09:02.670Z,7.50
2022-09-23T02:11:52.459Z,6.00
2022-09-23T02:14:52.105Z,7.35
2022-09-23T02:17:48.529Z,6.78
2022-09-23T02:20:36.676Z,7.15
2022-09-23T02:23:29.818Z,7.03
2022-09-23T02:26:21.894Z,7.25
2022-09-23T02:29:22.092Z,6.75
2022-09-23T02:32:31.566Z,6.40
2022-09-23T02:35:19.658Z,6.25
2022-09-23T02:38:44.040Z,6.13
2022-09-23T02:41:55.756Z,6.55
2022-09-23T02:44:41.187Z,5.95
2022-09-23T02:47:31.359Z,7.15
2022-09-23T02:50:18.118Z,7.28
2022-09-23T02:53:03.408Z,6.97
2022-09-23T02:55:49.282Z,6.78
2022-09-23T02:58:34.573Z,6.90
2022-09-23T03:01:39.318Z,6.97
2022-09-23T03:05:23.954Z,6.50
2022-09-23T03:08:42.301Z,6.25
2022-09-23T03:11:28.235Z,6.68
2022-09-23T03:14:36.339Z,6.60
2022-09-23T03:17:29.521Z,7.05
2022-09-23T03:23:09.361Z,7.65
2022-09-23T03:25:56.901Z,7.68
2022-09-23T03:28:44.603Z,6.57
2022-09-23T03:31:31.126Z,7.22
2022-09-23T03:34:23.715Z,8.90
2022-09-23T03:37:25.447Z,7.68
2022-09-23T03:40:23.406Z,7.38
2022-09-23T03:43:11.647Z,7.75
2022-09-23T03:45:58.264Z,7.63
2022-09-23T03:48:45.520Z,6.88
2022-09-23T03:51:30.940Z,7.53
2022-09-23T03:54:17.654Z,7.45
2022-09-23T03:57:03.593Z,8.23
2022-09-23T03:59:52.604Z,6.57
2022-09-23T04:02:37.873Z,7.30
2022-09-23T04:05:23.315Z,7.53
2022-09-23T04:08:08.947Z,6.43
2022-09-23T04:10:59.953Z,6.88
2022-09-23T04:13:45.619Z,7.25
2022-09-23T04:16:31.381Z,6.47
2022-09-23T04:19:17.721Z,6.50
2022-09-23T04:22:03.622Z,6.75
2022-09-23T04:24:49.461Z,7.22
2022-09-23T04:27:37.722Z,7.03
2022-09-23T04:30:23.270Z,8.13
2022-09-23T04:33:08.797Z,8.32
2022-09-23T04:35:56.291Z,7.93
2022-09-23T04:38:45.055Z,7.43
2022-09-23T04:41:30.737Z,7.97
2022-09-23T04:44:16.286Z,6.75
2022-09-23T04:47:02.721Z,7.30
2022-09-23T04:49:48.253Z,8.18
2022-09-23T04:52:34.023Z,7.78
2022-09-23T04:55:20.143Z,7.85
2022-09-23T04:58:05.561Z,7.13
2022-09-23T05:00:51.239Z,7.40
2022-09-23T05:03:37.080Z,7.72
2022-09-23T05:06:22.622Z,8.25
2022-09-23T05:09:09.005Z,8.82
2022-09-23T05:11:55.046Z,8.13
2022-09-23T05:14:40.722Z,7.15
2022-09-23T05:17:25.909Z,7.50
2022-09-23T05:20:13.034Z,8.35
2022-09-23T05:22:58.619Z,8.68
2022-09-23T05:25:45.390Z,8.65
2022-09-23T05:28:32.694Z,9.05
2022-09-23T05:31:20.986Z,9.20
2022-09-23T05:34:06.817Z,9.50
2022-09-23T05:36:52.060Z,9.20
2022-09-23T05:39:37.475Z,9.18
2022-09-23T05:42:22.767Z,9.18
2022-09-23T05:45:08.723Z,9.32
2022-09-23T05:47:54.266Z,9.25
2022-09-23T05:50:39.631Z,9.50
2022-09-23T05:53:25.277Z,9.35
2022-09-23T05:56:11.816Z,9.52
2022-09-23T05:58:58.615Z,10.25
2022-09-23T06:01:44.538Z,9.65
2022-09-23T06:04:31.074Z,10.25
2022-09-23T06:07:17.199Z,11.00
2022-09-23T06:10:02.873Z,12.07
2022-09-23T06:12:48.186Z,11.07
2022-09-23T06:15:34.273Z,10.82
2022-09-23T06:18:19.801Z,11.27
2022-09-23T06:21:05.909Z,9.68
2022-09-23T06:23:55.592Z,8.82
2022-09-23T06:26:41.736Z,9.25
2022-09-23T06:29:27.221Z,11.20
2022-09-23T06:32:12.695Z,9.75
2022-09-23T06:34:58.552Z,9.73
2022-09-23T06:37:43.952Z,11.18
2022-09-23T06:40:29.606Z,11.20
2022-09-23T06:43:15.090Z,12.20
2022-09-23T06:46:04.049Z,12.52
2022-09-23T06:48:51.051Z,13.45
2022-09-23T06:51:36.733Z,13.95
2022-09-23T06:54:22.221Z,15.80
2022-09-23T06:57:07.740Z,14.93
2022-09-23T06:59:53.361Z,15.82
2022-09-23T07:02:42.199Z,14.15
2022-09-23T07:05:28.075Z,14.88
2022-09-23T07:08:13.449Z,14.35
2022-09-23T07:11:00.776Z,14.50
2022-09-23T07:13:46.044Z,14.82
2022-09-23T07:16:32.867Z,15.00
2022-09-23T07:19:18.480Z,14.95
2022-09-23T07:22:03.798Z,13.68
2022-09-23T07:24:49.241Z,14.50
2022-09-23T07:27:34.817Z,13.80
2022-09-23T07:30:25.751Z,13.30
2022-09-23T07:33:26.441Z,11.85
2022-09-23T07:36:17.345Z,12.80
2022-09-23T07:39:03.696Z,12.13
2022-09-23T07:41:49.786Z,10.73
2022-09-23T07:44:35.602Z,9.68
2022-09-23T07:47:21.074Z,8.88
2022-09-23T07:50:08.505Z,8.38
2022-09-23T07:52:53.547Z,8.65
2022-09-23T07:55:39.139Z,7.82
2022-09-23T07:58:25.888Z,7.97
2022-09-23T08:01:12.425Z,8.60
2022-09-23T08:04:02.152Z,8.82
2022-09-23T08:06:54.551Z,9.38
2022-09-23T08:09:42.119Z,10.10
2022-09-23T08:12:29.470Z,10.52
2022-09-23T08:15:17.149Z,10.85
2022-09-23T08:18:02.943Z,9.93
2022-09-23T08:20:48.352Z,10.80
2022-09-23T08:23:33.985Z,10.27
2022-09-23T08:26:22.309Z,9.82
2022-09-23T08:29:11.374Z,10.93
2022-09-23T08:31:56.739Z,11.75
2022-09-23T08:34:42.711Z,11.18
2022-09-23T08:37:28.226Z,11.93
2022-09-23T08:40:14.251Z,12.40
2022-09-23T08:43:00.191Z,11.70
2022-09-23T08:45:46.827Z,13.80
2022-09-23T08:48:42.474Z,11.88
2022-09-23T08:51:46.770Z,11.45
2022-09-23T08:54:32.366Z,11.57
2022-09-23T08:57:42.393Z,12.45
2022-09-23T09:00:40.417Z,12.32
2022-09-23T09:03:35.629Z,11.55
2022-09-23T09:06:51.754Z,10.93
2022-09-23T09:09:48.826Z,10.80
2022-09-23T09:12:40.955Z,11.98
2022-09-23T09:15:27.988Z,11.48
2022-09-23T09:18:22.047Z,11.00
2022-09-23T09:21:12.749Z,12.10
2022-09-23T09:24:00.483Z,11.13
2022-09-23T09:26:46.346Z,11.95
2022-09-23T09:29:39.083Z,10.13
2022-09-23T09:35:24.288Z,11.45
2022-09-23T09:38:09.783Z,10.80
2022-09-23T09:41:01.877Z,11.25
2022-09-23T09:43:56.291Z,15.50
2022-09-23T09:46:47.852Z,16.05
2022-09-23T09:49:43.857Z,18.13
2022-09-23T09:52:30.065Z,18.48
2022-09-23T09:55:22.590Z,18.98
2022-09-23T09:58:16.388Z,20.10
2022-09-23T10:01:02.111Z,18.83
2022-09-23T10:03:51.353Z,19.80
2022-09-23T10:06:37.620Z,20.65
2022-09-23T10:09:38.009Z,20.05
2022-09-23T10:12:28.117Z,20.48
2022-09-23T10:15:27.146Z,20.55
2022-09-23T10:18:28.598Z,19.85
2022-09-23T10:21:17.149Z,19.40
2022-09-23T10:24:06.055Z,21.15
2022-09-23T10:27:12.057Z,21.48
2022-09-23T10:30:01.333Z,20.83
2022-09-23T10:32:47.243Z,19.92
2022-09-23T10:35:33.039Z,21.85
2022-09-23T10:38:18.419Z,21.67
2022-09-23T10:41:31.004Z,20.30
2022-09-23T10:44:52.936Z,20.65
2022-09-23T10:47:51.123Z,20.60
2022-09-23T10:50:39.419Z,20.50
2022-09-23T10:53:50.036Z,21.42
2022-09-23T10:57:02.261Z,19.30
2022-09-23T10:59:48.998Z,20.05
2022-09-23T11:02:34.725Z,20.55
2022-09-23T11:05:32.716Z,20.98
2022-09-23T11:08:36.621Z,20.50
2022-09-23T11:11:44.898Z,21.02
2022-09-23T11:14:30.150Z,18.77
2022-09-23T11:17:18.674Z,19.70
2022-09-23T11:20:23.150Z,16.52
2022-09-23T11:23:27.158Z,14.45
2022-09-23T11:26:33.562Z,12.65
2022-09-23T11:29:57.096Z,11.35
2022-09-23T11:32:48.685Z,10.95
2022-09-23T11:36:11.785Z,10.52
2022-09-23T11:39:09.901Z,10.65
2022-09-23T11:41:59.364Z,9.85
2022-09-23T11:44:51.853Z,9.45
2022-09-23T11:47:46.716Z,10.47
2022-09-23T11:50:40.647Z,10.00
2022-09-23T11:53:47.471Z,10.07
2022-09-23T11:56:41.369Z,9.95
2022-09-23T11:59:57.031Z,10.00
2022-09-23T12:02:58.868Z,9.02
2022-09-23T12:06:13.106Z,7.90
2022-09-23T12:09:04.291Z,8.25
2022-09-23T12:12:06.440Z,7.40
2022-09-23T12:14:55.135Z,6.18
2022-09-23T12:18:18.459Z,5.78
2022-09-23T12:21:39.075Z,5.90
2022-09-23T12:25:04.642Z,5.28
2022-09-23T12:27:53.096Z,6.07
2022-09-23T12:30:39.998Z,7.22
2022-09-23T12:33:33.468Z,5.78
2022-09-23T12:36:26.864Z,6.10
2022-09-23T12:39:37.345Z,6.05
2022-09-23T12:42:25.736Z,5.47
2022-09-23T12:45:35.325Z,5.65
2022-09-23T12:48:21.283Z,5.25
2022-09-23T12:51:20.757Z,4.60
2022-09-23T12:54:06.099Z,4.57
2022-09-23T12:56:54.511Z,5.03
2022-09-23T12:59:55.955Z,5.47
2022-09-23T13:02:47.299Z,6.18
2022-09-23T13:05:51.510Z,5.38
2022-09-23T13:08:42.400Z,6.25
2022-09-23T13:11:32.115Z,5.72
2022-09-23T13:14:26.737Z,5.05
2022-09-23T13:17:40.294Z,5.03
2022-09-23T13:20:36.563Z,5.65
2022-09-23T13:23:28.655Z,5.60
2022-09-23T13:26:15.593Z,5.20
2022-09-23T13:29:03.773Z,5.70
2022-09-23T13:31:49.287Z,5.30
2022-09-23T13:34:38.753Z,5.22
2022-09-23T13:37:29.769Z,4.90
2022-09-23T13:40:23.743Z,4.20
2022-09-23T13:43:32.463Z,3.95
2022-09-23T13:46:28.572Z,4.07
2022-09-23T13:49:43.606Z,4.80
2022-09-23T13:52:31.888Z,3.67
2022-09-23T13:55:32.948Z,3.10
2022-09-23T13:58:24.063Z,3.70
2022-09-23T14:01:21.309Z,3.33
2022-09-23T14:04:24.636Z,3.15
2022-09-23T14:09:58.525Z,3.13
2022-09-23T14:12:45.137Z,3.25
2022-09-23T14:15:31.054Z,3.53
2022-09-23T14:18:32.321Z,3.75
2022-09-23T14:21:35.237Z,3.72
2022-09-23T14:24:30.063Z,3.55
2022-09-23T14:27:24.034Z,4.55
2022-09-23T14:30:20.513Z,4.90
2022-09-23T14:33:10.526Z,5.15
2022-09-23T14:36:07.666Z,4.72
2022-09-23T14:38:53.506Z,5.57
2022-09-23T14:41:42.685Z,5.25
2022-09-23T14:44:29.675Z,5.70
2022-09-23T14:47:15.248Z,5.03
2022-09-23T14:50:19.399Z,5.70
2022-09-23T14:53:23.893Z,5.38
2022-09-23T14:56:13.493Z,5.95
2022-09-23T14:59:00.651Z,6.88
2022-09-23T15:01:46.196Z,6.47
2022-09-23T15:04:32.496Z,7.00
2022-09-23T15:07:20.862Z,6.60
2022-09-23T15:10:09.752Z,6.22
2022-09-23T15:13:05.376Z,6.55
2022-09-23T15:15:55.384Z,6.47
2022-09-23T15:18:44.254Z,7.45
2022-09-23T15:21:42.851Z,7.18
2022-09-23T15:24:36.606Z,7.22
2022-09-23T15:27:30.591Z,7.07
2022-09-23T15:30:18.550Z,6.85
2022-09-23T15:33:04.522Z,7.18
2022-09-23T15:35:50.344Z,7.40
2022-09-23T15:38:44.829Z,6.75
2022-09-23T15:41:30.216Z,6.97
2022-09-23T15:44:18.654Z,7.95
2022-09-23T15:47:04.515Z,8.07
2022-09-23T15:49:50.048Z,7.32
2022-09-23T15:52:37.041Z,7.55
2022-09-23T15:55:23.002Z,7.05
2022-09-23T15:58:08.688Z,7.40
2022-09-23T16:00:57.164Z,7.28
2022-09-23T16:03:42.937Z,7.90
2022-09-23T16:06:28.638Z,7.43
2022-09-23T16:09:15.295Z,6.97
2022-09-23T16:12:01.925Z,6.50
2022-09-23T16:14:47.625Z,7.07
2022-09-23T16:17:33.185Z,7.32
2022-09-23T16:20:18.560Z,8.02
2022-09-23T16:23:08.239Z,7.28
2022-09-23T16:25:53.929Z,6.18
2022-09-23T16:28:39.383Z,6.13
2022-09-23T16:31:27.023Z,6.10
2022-09-23T16:34:12.616Z,6.93
2022-09-23T16:36:58.526Z,6.65
2022-09-23T16:39:44.000Z,6.40
2022-09-23T16:42:29.267Z,6.65
2022-09-23T16:45:18.105Z,6.68
2022-09-23T16:48:05.194Z,6.97
2022-09-23T16:50:54.660Z,7.00
2022-09-23T16:53:40.294Z,7.13
2022-09-23T16:56:29.115Z,7.28
2022-09-23T16:59:16.049Z,6.60
2022-09-23T17:02:20.320Z,6.63
2022-09-23T17:05:06.359Z,6.45
2022-09-23T17:07:51.952Z,5.40
2022-09-23T17:10:37.642Z,6.07
2022-09-23T17:13:23.223Z,5.60
2022-09-23T17:16:21.738Z,5.88
2022-09-23T17:19:09.038Z,5.68
2022-09-23T17:21:54.848Z,5.93
2022-09-23T17:24:40.212Z,4.82
2022-09-23T17:27:25.969Z,5.30
2022-09-23T17:30:12.011Z,5.18
2022-09-23T17:32:57.585Z,4.97
2022-09-23T17:35:43.357Z,4.63
2022-09-23T17:38:29.694Z,4.15
2022-09-23T17:41:17.259Z,4.70
2022-09-23T17:44:02.995Z,3.90
2022-09-23T17:46:49.287Z,5.90
2022-09-23T17:49:35.345Z,4.00
2022-09-23T17:52:20.839Z,3.72
2022-09-23T17:55:07.077Z,3.25
2022-09-23T17:57:52.768Z,3.25
2022-09-23T18:00:37.981Z,3.00
2022-09-23T18:03:24.847Z,2.97
2022-09-23T18:06:12.525Z,3.08
2022-09-23T18:09:01.551Z,2.50
2022-09-23T18:11:49.246Z,2.30
2022-09-23T18:14:34.746Z,2.60
2022-09-23T18:17:20.247Z,2.17
2022-09-23T18:20:06.342Z,2.60
2022-09-23T18:23:15.495Z,2.38
2022-09-23T18:26:01.103Z,2.65
2022-09-23T18:28:48.170Z,2.40
2022-09-23T18:31:35.359Z,2.10
2022-09-23T18:34:20.707Z,2.15
2022-09-23T18:37:15.091Z,2.17
2022-09-23T18:40:01.723Z,2.00
2022-09-23T18:42:47.018Z,1.75
2022-09-23T18:45:32.510Z,2.03
2022-09-23T18:48:36.521Z,1.98
2022-09-23T18:51:28.319Z,2.10
2022-09-23T18:54:13.862Z,2.25
2022-09-23T18:56:59.397Z,1.77
2022-09-23T18:59:47.412Z,2.22
2022-09-23T19:02:33.811Z,1.90
2022-09-23T19:05:19.363Z,2.17
2022-09-23T19:08:05.374Z,2.08
2022-09-23T19:10:57.888Z,2.28
2022-09-23T19:13:43.112Z,2.17
2022-09-23T19:16:31.743Z,2.30
2022-09-23T19:19:17.327Z,3.00
2022-09-23T19:22:02.808Z,2.50
2022-09-23T19:24:48.372Z,2.75
2022-09-23T19:27:35.913Z,2.28
2022-09-23T19:30:21.668Z,3.00
2022-09-23T19:33:09.052Z,2.90
2022-09-23T19:35:54.501Z,2.35
2022-09-23T19:38:40.002Z,2.85
2022-09-23T19:41:28.195Z,3.55
2022-09-23T19:44:14.475Z,2.90
2022-09-23T19:46:59.891Z,2.55
2022-09-23T19:49:45.558Z,2.65
2022-09-23T19:52:30.918Z,2.70
2022-09-23T19:55:18.349Z,2.70
2022-09-23T19:58:04.987Z,2.42
2022-09-23T20:00:50.689Z,2.70
2022-09-23T20:03:36.537Z,2.92
2022-09-23T20:06:22.876Z,1.95
2022-09-23T20:09:08.341Z,2.13
2022-09-23T20:11:53.763Z,2.40
2022-09-23T20:14:39.688Z,2.63
2022-09-23T20:17:25.235Z,2.55
2022-09-23T20:20:12.487Z,2.65
2022-09-23T20:22:58.007Z,2.65
2022-09-23T20:26:03.921Z,2.28
2022-09-23T20:28:49.282Z,2.72
2022-09-23T20:31:34.730Z,2.47
2022-09-23T20:34:21.194Z,2.38
2022-09-23T20:37:06.886Z,2.60
2022-09-23T20:39:52.673Z,2.63
2022-09-23T20:42:38.524Z,2.65
2022-09-23T20:45:23.873Z,2.78
2022-09-23T20:48:11.356Z,2.65
2022-09-23T20:51:04.980Z,3.15
2022-09-23T20:53:54.708Z,2.50
2022-09-23T20:56:40.130Z,3.38
2022-09-23T20:59:27.207Z,2.33
2022-09-23T21:02:12.597Z,3.20
2022-09-23T21:04:58.476Z,2.65
2022-09-23T21:07:48.677Z,2.22
2022-09-23T21:10:35.855Z,2.28
2022-09-23T21:13:21.405Z,2.72
2022-09-23T21:16:10.565Z,2.22
2022-09-23T21:18:58.947Z,2.83
2022-09-23T21:21:44.752Z,2.47
2022-09-23T21:27:37.196Z,2.72
2022-09-23T21:30:23.004Z,2.95
2022-09-23T21:33:08.335Z,3.53
2022-09-23T21:35:54.971Z,2.92
2022-09-23T21:38:40.552Z,2.78
2022-09-23T21:41:26.369Z,3.42
2022-09-23T21:44:11.976Z,2.83
2022-09-23T21:46:57.541Z,2.55
2022-09-23T21:49:48.385Z,2.80
2022-09-23T21:52:35.948Z,2.80
2022-09-23T21:55:21.517Z,2.60
2022-09-23T21:58:07.202Z,2.40
2022-09-23T22:00:52.670Z,2.30
2022-09-23T22:03:39.244Z,1.92
2022-09-23T22:06:27.550Z,2.10
2022-09-23T22:09:18.862Z,2.38
2022-09-23T22:12:12.781Z,1.70
2022-09-23T22:14:58.311Z,2.28
2022-09-23T22:17:43.865Z,1.90
2022-09-23T22:20:29.881Z,1.90
2022-09-23T22:23:15.348Z,1.90
2022-09-23T22:26:03.354Z,2.10
2022-09-23T22:29:07.477Z,2.20
2022-09-23T22:32:11.495Z,2.42
2022-09-23T22:34:57.383Z,2.28
2022-09-23T22:37:42.710Z,1.80
2022-09-23T22:40:28.215Z,1.80
2022-09-23T22:43:13.965Z,2.22
2022-09-23T22:45:59.943Z,2.45
2022-09-23T22:48:45.437Z,2.00
2022-09-23T22:51:30.977Z,1.88
2022-09-23T22:54:16.691Z,2.47
2022-09-23T22:57:05.146Z,2.10
2022-09-23T22:59:50.823Z,2.10
2022-09-23T23:02:36.721Z,2.60
2022-09-23T23:05:22.286Z,2.17
2022-09-23T23:08:07.891Z,2.70
2022-09-23T23:10:54.989Z,2.70
2022-09-23T23:13:43.613Z,2.42
2022-09-23T23:16:35.738Z,2.50
2022-09-23T23:19:21.479Z,2.57
2022-09-23T23:22:06.901Z,3.25
2022-09-23T23:24:54.594Z,2.50
2022-09-23T23:27:40.291Z,3.20
2022-09-23T23:30:26.333Z,2.78
2022-09-23T23:33:11.829Z,2.83
2022-09-23T23:35:57.092Z,2.90
2022-09-23T23:38:44.418Z,3.38
2022-09-23T23:41:29.669Z,2.80
2022-09-23T23:44:15.227Z,2.60
2022-09-23T23:47:01.798Z,2.28
2022-09-23T23:49:47.215Z,2.80
2022-09-23T23:52:32.675Z,2.88
2022-09-23T23:55:18.495Z,2.45
2022-09-23T23:58:03.873Z,3.00
